createdAt,value
2022-10-06T00:01:19.868Z,63.70
2022-10-06T00:03:47.120Z,63.35
2022-10-06T00:06:17.036Z,63.48
2022-10-06T00:08:45.328Z,63.43
2022-10-06T00:11:14.240Z,62.80
2022-10-06T00:13:42.175Z,63.30
2022-10-06T00:16:17.570Z,63.46
2022-10-06T00:18:45.368Z,62.95
2022-10-06T00:21:12.291Z,62.59
2022-10-06T00:23:39.155Z,63.26
2022-10-06T00:26:06.301Z,62.90
2022-10-06T00:28:33.740Z,63.01
2022-10-06T00:31:03.663Z,62.60
2022-10-06T00:33:30.599Z,62.93
2022-10-06T00:35:58.797Z,62.85
2022-10-06T00:38:27.357Z,62.82
2022-10-06T00:40:55.737Z,62.82
2022-10-06T00:43:57.014Z,62.98
2022-10-06T00:46:47.317Z,62.50
2022-10-06T00:49:28.052Z,62.39
2022-10-06T00:52:00.580Z,62.56
2022-10-06T00:54:28.561Z,62.31
2022-10-06T00:56:55.765Z,62.36
2022-10-06T00:59:22.641Z,62.59
2022-10-06T01:02:15.665Z,62.68
2022-10-06T01:04:55.823Z,62.61
2022-10-06T01:07:26.881Z,62.05
2022-10-06T01:09:55.211Z,62.08
2022-10-06T01:15:04.971Z,61.98
2022-10-06T01:17:52.372Z,61.66
2022-10-06T01:20:20.658Z,61.90
2022-10-06T01:23:02.675Z,62.13
2022-10-06T01:25:29.760Z,62.15
2022-10-06T01:27:58.626Z,61.57
2022-10-06T01:30:36.498Z,62.11
2022-10-06T01:33:04.037Z,61.71
2022-10-06T01:35:32.782Z,61.94
2022-10-06T01:38:00.602Z,61.62
2022-10-06T01:40:30.212Z,61.51
2022-10-06T01:43:00.199Z,61.96
2022-10-06T01:45:28.077Z,62.01
2022-10-06T01:47:54.968Z,62.07
2022-10-06T01:50:22.693Z,61.93
2022-10-06T01:52:49.773Z,61.76
2022-10-06T01:55:17.285Z,61.54
2022-10-06T01:57:44.427Z,61.54
2022-10-06T02:00:12.908Z,61.97
2022-10-06T02:02:40.753Z,61.81
2022-10-06T02:05:08.023Z,61.95
2022-10-06T02:07:38.279Z,61.97
2022-10-06T02:10:06.776Z,61.42
2022-10-06T02:12:35.165Z,62.03
2022-10-06T02:15:02.446Z,61.35
2022-10-06T02:17:29.605Z,62.00
2022-10-06T02:19:56.576Z,61.52
2022-10-06T02:22:23.496Z,61.91
2022-10-06T02:24:51.020Z,61.82
2022-10-06T02:27:18.331Z,61.73
2022-10-06T02:29:45.308Z,61.99
2022-10-06T02:32:13.925Z,62.73
2022-10-06T02:34:41.052Z,63.13
2022-10-06T02:37:08.670Z,63.07
2022-10-06T02:39:35.714Z,63.56
2022-10-06T02:42:05.229Z,63.98
2022-10-06T02:44:32.117Z,64.21
2022-10-06T02:46:59.481Z,63.79
2022-10-06T02:49:26.575Z,63.81
2022-10-06T02:51:53.492Z,63.85
2022-10-06T02:54:20.351Z,63.63
2022-10-06T02:56:50.150Z,64.01
2022-10-06T02:59:17.075Z,64.18
2022-10-06T03:01:44.993Z,64.35
2022-10-06T03:04:16.188Z,64.25
2022-10-06T03:06:43.568Z,64.13
2022-10-06T03:09:19.163Z,64.24
2022-10-06T03:11:46.390Z,64.10
2022-10-06T03:14:21.915Z,63.50
2022-10-06T03:16:51.819Z,63.67
2022-10-06T03:19:25.719Z,62.54
2022-10-06T03:21:53.468Z,62.74
2022-10-06T03:24:22.869Z,62.82
2022-10-06T03:26:54.417Z,62.59
2022-10-06T03:29:21.362Z,62.30
2022-10-06T03:31:54.627Z,61.96
2022-10-06T03:34:21.563Z,61.68
2022-10-06T03:36:48.533Z,61.46
2022-10-06T03:39:18.867Z,61.62
2022-10-06T03:41:46.175Z,61.58
2022-10-06T03:44:14.425Z,61.39
2022-10-06T03:46:43.179Z,61.93
2022-10-06T03:49:10.815Z,61.52
2022-10-06T03:51:40.442Z,62.10
2022-10-06T03:54:12.529Z,61.82
2022-10-06T03:56:42.947Z,61.50
2022-10-06T03:59:16.413Z,62.04
2022-10-06T04:01:47.510Z,61.70
2022-10-06T04:04:22.732Z,61.80
2022-10-06T04:06:53.856Z,61.18
2022-10-06T04:09:21.695Z,61.59
2022-10-06T04:11:48.755Z,61.26
2022-10-06T04:14:16.833Z,60.53
2022-10-06T04:16:48.623Z,60.54
2022-10-06T04:19:20.322Z,60.31
2022-10-06T04:21:50.332Z,60.55
2022-10-06T04:24:21.128Z,60.51
2022-10-06T04:26:50.043Z,60.12
2022-10-06T04:29:18.353Z,59.86
2022-10-06T04:31:49.219Z,59.59
2022-10-06T04:34:34.679Z,59.09
2022-10-06T04:37:01.600Z,58.73
2022-10-06T04:39:28.520Z,58.43
2022-10-06T04:41:55.629Z,58.66
2022-10-06T04:44:26.705Z,58.55
2022-10-06T04:46:55.812Z,57.81
2022-10-06T04:49:22.711Z,58.29
2022-10-06T04:51:52.435Z,58.50
2022-10-06T04:54:19.716Z,58.33
2022-10-06T04:56:49.915Z,58.00
2022-10-06T04:59:18.849Z,57.92
2022-10-06T05:01:46.988Z,57.79
2022-10-06T05:04:14.810Z,58.25
2022-10-06T05:06:42.911Z,57.95
2022-10-06T05:09:14.811Z,58.01
2022-10-06T05:11:48.735Z,57.84
2022-10-06T05:14:18.928Z,57.70
2022-10-06T05:16:48.570Z,57.72
2022-10-06T05:19:16.609Z,58.27
2022-10-06T05:21:43.541Z,57.80
2022-10-06T05:24:14.256Z,57.88
2022-10-06T05:26:41.569Z,57.91
2022-10-06T05:29:11.615Z,58.06
2022-10-06T05:31:41.170Z,58.23
2022-10-06T05:34:08.424Z,58.30
2022-10-06T05:36:36.195Z,58.12
2022-10-06T05:39:05.023Z,57.96
2022-10-06T05:41:38.169Z,58.29
2022-10-06T05:44:08.675Z,57.99
2022-10-06T05:46:37.948Z,57.98
2022-10-06T05:49:09.093Z,58.07
2022-10-06T05:51:38.835Z,57.96
2022-10-06T05:54:09.739Z,58.33
2022-10-06T05:56:38.228Z,58.39
2022-10-06T05:59:05.960Z,57.93
2022-10-06T06:01:42.370Z,58.32
2022-10-06T06:04:26.545Z,58.29
2022-10-06T06:06:56.283Z,58.34
2022-10-06T06:09:26.254Z,58.17
2022-10-06T06:11:55.016Z,57.73
2022-10-06T06:15:00.080Z,58.54
2022-10-06T06:17:33.305Z,58.10
2022-10-06T06:20:02.160Z,57.80
2022-10-06T06:22:29.099Z,58.35
2022-10-06T06:24:55.964Z,58.41
2022-10-06T06:27:23.346Z,57.86
2022-10-06T06:29:50.399Z,57.94
2022-10-06T06:32:17.430Z,58.05
2022-10-06T06:34:45.093Z,57.51
2022-10-06T06:37:15.216Z,57.77
2022-10-06T06:39:44.956Z,57.73
2022-10-06T06:42:12.082Z,57.19
2022-10-06T06:44:39.518Z,57.57
2022-10-06T06:47:13.900Z,57.71
2022-10-06T06:49:42.955Z,57.62
2022-10-06T06:52:09.975Z,56.78
2022-10-06T06:54:40.508Z,56.94
2022-10-06T06:57:11.901Z,57.00
2022-10-06T06:59:38.939Z,56.33
2022-10-06T07:02:09.855Z,56.81
2022-10-06T07:04:38.856Z,56.65
2022-10-06T07:07:09.733Z,56.66
2022-10-06T07:09:37.529Z,56.56
2022-10-06T07:12:11.369Z,56.53
2022-10-06T07:15:00.569Z,55.62
2022-10-06T07:17:47.924Z,55.91
2022-10-06T07:20:34.193Z,54.87
2022-10-06T07:23:19.296Z,55.13
2022-10-06T07:25:46.418Z,54.58
2022-10-06T07:28:16.875Z,55.10
2022-10-06T07:30:44.862Z,54.68
2022-10-06T07:33:18.761Z,54.29
2022-10-06T07:35:46.795Z,54.29
2022-10-06T07:38:16.139Z,54.50
2022-10-06T07:41:14.602Z,54.29
2022-10-06T07:43:33.718Z,53.95
2022-10-06T07:46:01.171Z,53.13
2022-10-06T07:48:32.551Z,53.04
2022-10-06T07:51:02.169Z,53.61
2022-10-06T07:53:36.020Z,53.69
2022-10-06T07:56:09.122Z,53.09
2022-10-06T07:58:40.908Z,52.85
2022-10-06T08:01:11.115Z,53.35
2022-10-06T08:03:38.478Z,53.18
2022-10-06T08:06:05.477Z,53.11
2022-10-06T08:08:37.881Z,53.27
2022-10-06T08:11:08.158Z,53.30
2022-10-06T08:13:42.142Z,53.64
2022-10-06T08:16:11.507Z,52.79
2022-10-06T08:18:46.571Z,53.09
2022-10-06T08:21:17.803Z,52.68
2022-10-06T08:23:46.802Z,52.48
2022-10-06T08:26:15.728Z,52.77
2022-10-06T08:28:52.683Z,51.71
2022-10-06T08:31:22.745Z,51.99
2022-10-06T08:33:56.051Z,52.16
2022-10-06T08:36:31.063Z,51.69
2022-10-06T08:38:59.547Z,52.08
2022-10-06T08:41:48.638Z,51.40
2022-10-06T08:44:19.469Z,50.79
2022-10-06T08:47:04.243Z,50.49
2022-10-06T08:49:47.093Z,50.75
2022-10-06T08:52:36.570Z,51.28
2022-10-06T08:55:30.612Z,50.56
2022-10-06T08:58:23.279Z,50.40
2022-10-06T09:00:50.741Z,50.23
2022-10-06T09:03:28.590Z,50.65
2022-10-06T09:06:12.552Z,50.58
2022-10-06T09:08:51.258Z,49.91
2022-10-06T09:11:37.440Z,49.19
2022-10-06T09:14:24.448Z,48.98
2022-10-06T09:17:00.669Z,49.27
2022-10-06T09:19:58.652Z,48.75
2022-10-06T09:22:31.628Z,48.83
2022-10-06T09:25:28.066Z,48.70
2022-10-06T09:28:00.815Z,47.95
2022-10-06T09:30:27.785Z,47.35
2022-10-06T09:33:03.782Z,48.05
2022-10-06T09:35:32.665Z,47.64
2022-10-06T09:38:08.801Z,48.30
2022-10-06T09:40:51.212Z,48.47
2022-10-06T09:43:29.065Z,48.35
2022-10-06T09:46:21.172Z,47.41
2022-10-06T09:48:48.043Z,47.03
2022-10-06T09:51:17.843Z,47.27
2022-10-06T09:54:10.474Z,47.11
2022-10-06T09:56:42.334Z,46.96
2022-10-06T09:59:21.741Z,46.27
2022-10-06T10:01:55.329Z,45.88
2022-10-06T10:04:37.528Z,46.64
2022-10-06T10:07:25.565Z,47.22
2022-10-06T10:09:54.458Z,46.18
2022-10-06T10:12:28.630Z,46.11
2022-10-06T10:15:19.650Z,45.71
2022-10-06T10:17:53.060Z,46.01
2022-10-06T10:20:29.864Z,45.65
2022-10-06T10:23:00.693Z,45.42
2022-10-06T10:25:44.700Z,45.36
2022-10-06T10:28:14.119Z,45.25
2022-10-06T10:31:05.231Z,44.39
2022-10-06T10:34:12.654Z,44.20
2022-10-06T10:37:04.850Z,44.69
2022-10-06T10:39:46.094Z,44.81
2022-10-06T10:42:56.197Z,44.33
2022-10-06T10:45:35.368Z,44.26
2022-10-06T10:48:23.170Z,43.99
2022-10-06T10:51:13.108Z,43.58
2022-10-06T10:53:55.781Z,43.21
2022-10-06T10:56:26.331Z,42.92
2022-10-06T10:59:04.162Z,42.62
2022-10-06T11:01:38.970Z,42.16
2022-10-06T11:04:11.899Z,42.65
2022-10-06T11:06:55.859Z,42.60
2022-10-06T11:09:58.530Z,42.85
2022-10-06T11:13:00.333Z,42.55
2022-10-06T11:16:00.364Z,42.86
2022-10-06T11:19:02.580Z,42.94
2022-10-06T11:22:10.940Z,42.78
2022-10-06T11:24:47.536Z,42.83
2022-10-06T11:27:31.519Z,41.96
2022-10-06T11:30:07.261Z,41.76
2022-10-06T11:33:01.518Z,42.33
2022-10-06T11:35:35.317Z,42.36
2022-10-06T11:38:30.088Z,41.77
2022-10-06T11:41:15.914Z,42.76
2022-10-06T11:44:00.777Z,42.04
2022-10-06T11:47:11.215Z,41.89
2022-10-06T11:49:56.016Z,41.53
2022-10-06T11:52:23.828Z,41.53
2022-10-06T11:55:07.759Z,41.01
2022-10-06T11:58:08.710Z,41.51
2022-10-06T12:00:46.704Z,40.86
2022-10-06T12:03:28.973Z,41.37
2022-10-06T12:05:57.053Z,40.77
2022-10-06T12:08:40.788Z,40.50
2022-10-06T12:11:42.951Z,40.47
2022-10-06T12:16:55.342Z,41.14
2022-10-06T12:17:58.418Z,41.87
2022-10-06T12:21:06.435Z,42.33
2022-10-06T12:23:52.777Z,40.96
2022-10-06T12:26:54.186Z,40.19
2022-10-06T12:29:29.670Z,40.15
2022-10-06T12:32:24.228Z,40.95
2022-10-06T12:35:08.607Z,41.21
2022-10-06T12:37:56.166Z,41.10
2022-10-06T12:40:49.973Z,40.83
2022-10-06T12:43:20.872Z,40.35
2022-10-06T12:46:32.693Z,39.83
2022-10-06T12:49:36.837Z,39.94
2022-10-06T12:52:47.306Z,40.31
2022-10-06T12:55:35.370Z,40.05
2022-10-06T12:58:02.321Z,40.28
2022-10-06T13:00:40.386Z,40.18
2022-10-06T13:03:16.395Z,40.70
2022-10-06T13:05:51.237Z,40.92
2022-10-06T13:08:30.821Z,41.03
2022-10-06T13:11:27.038Z,40.42
2022-10-06T13:14:07.153Z,40.21
2022-10-06T13:16:40.956Z,40.86
2022-10-06T13:19:25.478Z,40.56
2022-10-06T13:21:53.598Z,40.18
2022-10-06T13:24:26.700Z,39.79
2022-10-06T13:26:54.215Z,40.12
2022-10-06T13:29:25.319Z,40.65
2022-10-06T13:31:55.593Z,40.29
2022-10-06T13:34:43.016Z,40.27
2022-10-06T13:37:15.027Z,40.42
2022-10-06T13:39:41.971Z,40.35
2022-10-06T13:42:14.232Z,40.10
2022-10-06T13:44:57.435Z,40.07
2022-10-06T13:47:27.044Z,40.16
2022-10-06T13:50:06.146Z,40.43
2022-10-06T13:52:46.507Z,40.59
2022-10-06T13:55:25.848Z,40.44
2022-10-06T13:58:04.847Z,40.66
2022-10-06T14:00:51.152Z,40.95
2022-10-06T14:06:17.480Z,41.08
2022-10-06T14:08:54.138Z,41.60
2022-10-06T14:11:28.067Z,41.54
2022-10-06T14:14:04.669Z,41.24
2022-10-06T14:16:31.928Z,41.36
2022-10-06T14:19:05.117Z,41.73
2022-10-06T14:21:35.506Z,42.03
2022-10-06T14:24:19.330Z,42.02
2022-10-06T14:26:50.766Z,41.80
2022-10-06T14:29:19.275Z,41.58
2022-10-06T14:31:47.036Z,41.93
2022-10-06T14:34:17.069Z,41.93
2022-10-06T14:36:47.543Z,41.98
2022-10-06T14:39:15.652Z,42.12
2022-10-06T14:41:42.612Z,41.97
2022-10-06T14:44:12.160Z,42.03
2022-10-06T14:46:47.664Z,42.31
2022-10-06T14:49:14.900Z,42.24
2022-10-06T14:51:43.685Z,42.57
2022-10-06T14:54:11.359Z,42.67
2022-10-06T14:56:40.017Z,42.61
2022-10-06T14:59:10.412Z,42.29
2022-10-06T15:01:39.886Z,42.48
2022-10-06T15:04:14.404Z,41.86
2022-10-06T15:07:00.829Z,41.76
2022-10-06T15:09:30.818Z,41.67
2022-10-06T15:11:59.419Z,41.42
2022-10-06T15:14:28.318Z,41.73
2022-10-06T15:16:55.947Z,41.51
2022-10-06T15:19:22.816Z,41.67
2022-10-06T15:21:49.791Z,41.61
2022-10-06T15:24:19.043Z,42.16
2022-10-06T15:27:05.482Z,42.27
2022-10-06T15:29:34.744Z,42.20
2022-10-06T15:32:03.555Z,42.36
2022-10-06T15:34:33.449Z,42.26
2022-10-06T15:37:01.594Z,42.16
2022-10-06T15:39:31.440Z,42.38
2022-10-06T15:41:58.990Z,41.70
2022-10-06T15:44:26.202Z,41.98
2022-10-06T15:46:56.589Z,42.01
2022-10-06T15:49:32.811Z,42.55
2022-10-06T15:52:03.681Z,42.52
2022-10-06T15:54:45.846Z,42.41
2022-10-06T15:57:19.486Z,43.01
2022-10-06T15:59:47.702Z,42.63
2022-10-06T16:02:16.748Z,42.74
2022-10-06T16:05:08.877Z,42.85
2022-10-06T16:07:35.763Z,43.07
2022-10-06T16:10:02.723Z,42.75
2022-10-06T16:12:29.603Z,43.14
2022-10-06T16:14:56.477Z,43.02
2022-10-06T16:17:23.353Z,42.92
2022-10-06T16:19:50.213Z,42.95
2022-10-06T16:22:19.330Z,42.90
2022-10-06T16:24:46.371Z,43.15
2022-10-06T16:27:15.783Z,43.45
2022-10-06T16:29:42.725Z,43.53
2022-10-06T16:32:09.746Z,43.90
2022-10-06T16:34:36.651Z,44.02
2022-10-06T16:37:03.724Z,43.84
2022-10-06T16:39:30.673Z,44.27
2022-10-06T16:41:57.762Z,43.72
2022-10-06T16:44:24.682Z,43.92
2022-10-06T16:46:51.620Z,44.43
2022-10-06T16:49:18.643Z,44.55
2022-10-06T16:51:46.128Z,44.80
2022-10-06T16:54:16.981Z,44.46
2022-10-06T16:56:51.705Z,44.93
2022-10-06T16:59:25.794Z,44.88
2022-10-06T17:01:52.815Z,44.56
2022-10-06T17:04:24.792Z,44.66
2022-10-06T17:06:53.467Z,44.98
2022-10-06T17:09:23.899Z,45.06
2022-10-06T17:11:57.369Z,45.46
2022-10-06T17:14:25.045Z,45.07
2022-10-06T17:16:54.263Z,45.19
2022-10-06T17:19:24.353Z,45.69
2022-10-06T17:21:58.225Z,45.44
2022-10-06T17:24:27.913Z,45.56
2022-10-06T17:26:56.418Z,45.78
2022-10-06T17:29:24.115Z,45.71
2022-10-06T17:31:58.786Z,46.08
2022-10-06T17:34:31.751Z,45.74
2022-10-06T17:37:01.132Z,46.24
2022-10-06T17:39:28.033Z,45.82
2022-10-06T17:41:54.910Z,45.94
2022-10-06T17:44:26.109Z,46.35
2022-10-06T17:46:56.468Z,46.60
2022-10-06T17:49:24.495Z,46.37
2022-10-06T17:51:53.521Z,46.21
2022-10-06T17:54:23.576Z,46.67
2022-10-06T17:56:54.133Z,46.39
2022-10-06T17:59:24.502Z,46.79
2022-10-06T18:01:52.134Z,47.13
2022-10-06T18:04:19.829Z,46.98
2022-10-06T18:06:47.691Z,47.62
2022-10-06T18:09:15.880Z,47.34
2022-10-06T18:11:45.868Z,48.07
2022-10-06T18:14:18.609Z,48.50
2022-10-06T18:16:56.632Z,48.14
2022-10-06T18:19:30.809Z,48.75
2022-10-06T18:22:11.600Z,48.82
2022-10-06T18:24:39.919Z,48.53
2022-10-06T18:27:08.177Z,48.79
2022-10-06T18:29:38.073Z,49.20
2022-10-06T18:36:12.146Z,49.64
2022-10-06T18:37:41.247Z,50.00
2022-10-06T18:40:09.870Z,49.95
2022-10-06T18:42:37.864Z,50.82
2022-10-06T18:45:24.629Z,50.94
2022-10-06T18:48:10.290Z,51.28
2022-10-06T18:50:37.156Z,51.09
2022-10-06T18:53:04.304Z,51.58
2022-10-06T18:55:31.837Z,51.75
2022-10-06T18:57:58.776Z,51.28
2022-10-06T19:00:26.305Z,51.79
2022-10-06T19:02:55.471Z,51.43
2022-10-06T19:05:23.138Z,51.72
2022-10-06T19:07:53.523Z,51.82
2022-10-06T19:10:20.398Z,52.16
2022-10-06T19:12:48.316Z,51.69
2022-10-06T19:15:20.396Z,51.95
2022-10-06T19:17:48.150Z,51.66
2022-10-06T19:20:15.035Z,51.46
2022-10-06T19:22:43.363Z,51.69
2022-10-06T19:25:10.297Z,51.59
2022-10-06T19:27:37.223Z,52.01
2022-10-06T19:30:05.133Z,52.15
2022-10-06T19:32:32.637Z,52.43
2022-10-06T19:35:00.101Z,53.03
2022-10-06T19:37:29.417Z,53.32
2022-10-06T19:39:56.410Z,52.95
2022-10-06T19:42:42.072Z,53.11
2022-10-06T19:45:11.590Z,53.28
2022-10-06T19:47:38.542Z,53.34
2022-10-06T19:50:11.672Z,53.51
2022-10-06T19:52:40.625Z,53.46
2022-10-06T19:55:07.586Z,53.24
2022-10-06T19:57:34.808Z,53.46
2022-10-06T20:00:01.699Z,53.53
2022-10-06T20:02:28.898Z,53.49
2022-10-06T20:04:56.517Z,53.39
2022-10-06T20:07:27.435Z,53.69
2022-10-06T20:09:54.799Z,53.55
2022-10-06T20:12:24.882Z,53.49
2022-10-06T20:14:53.584Z,53.00
2022-10-06T20:17:21.035Z,53.22
2022-10-06T20:19:48.062Z,53.34
2022-10-06T20:22:14.961Z,53.24
2022-10-06T20:24:41.884Z,53.21
2022-10-06T20:27:09.042Z,53.20
2022-10-06T20:29:36.019Z,53.21
2022-10-06T20:32:05.012Z,53.15
2022-10-06T20:34:32.261Z,53.08
2022-10-06T20:37:02.220Z,53.07
2022-10-06T20:39:50.313Z,53.27
2022-10-06T20:42:18.560Z,53.23
2022-10-06T20:44:45.975Z,53.06
2022-10-06T20:47:13.858Z,52.91
2022-10-06T20:49:42.445Z,53.27
2022-10-06T20:52:09.971Z,53.34
2022-10-06T20:54:37.304Z,53.28
2022-10-06T20:57:06.353Z,53.53
2022-10-06T20:59:36.587Z,53.44
2022-10-06T21:02:05.543Z,53.64
2022-10-06T21:04:34.618Z,53.88
2022-10-06T21:07:04.023Z,54.01
2022-10-06T21:09:31.048Z,54.10
2022-10-06T21:11:58.087Z,54.53
2022-10-06T21:14:25.151Z,54.36
2022-10-06T21:16:52.580Z,54.38
2022-10-06T21:19:20.074Z,54.44
2022-10-06T21:21:50.748Z,54.56
2022-10-06T21:24:18.095Z,54.59
2022-10-06T21:26:45.163Z,54.65
2022-10-06T21:29:16.197Z,54.73
2022-10-06T21:31:45.186Z,54.80
2022-10-06T21:34:14.497Z,55.03
2022-10-06T21:36:42.375Z,54.68
2022-10-06T21:39:09.579Z,54.81
2022-10-06T21:41:39.645Z,54.80
2022-10-06T21:44:11.758Z,54.93
2022-10-06T21:46:47.742Z,55.17
2022-10-06T21:49:24.474Z,55.31
2022-10-06T21:51:54.959Z,55.08
2022-10-06T21:54:23.287Z,55.48
2022-10-06T21:56:50.403Z,55.39
2022-10-06T21:59:17.589Z,55.41
2022-10-06T22:01:46.516Z,55.71
2022-10-06T22:04:15.228Z,55.61
2022-10-06T22:06:44.021Z,55.47
2022-10-06T22:09:16.143Z,55.45
2022-10-06T22:11:43.506Z,55.42
2022-10-06T22:14:17.272Z,55.37
2022-10-06T22:16:44.895Z,55.19
2022-10-06T22:19:14.231Z,55.26
2022-10-06T22:21:44.615Z,55.29
2022-10-06T22:24:15.407Z,55.38
2022-10-06T22:26:43.412Z,55.25
2022-10-06T22:29:13.768Z,55.28
2022-10-06T22:31:43.164Z,55.43
2022-10-06T22:34:13.198Z,55.28
2022-10-06T22:36:40.266Z,55.48
2022-10-06T22:39:07.723Z,55.45
2022-10-06T22:41:34.796Z,55.66
2022-10-06T22:44:01.802Z,55.75
2022-10-06T22:46:32.453Z,56.00
2022-10-06T22:48:59.812Z,56.08
2022-10-06T22:51:27.154Z,55.99
2022-10-06T22:53:58.295Z,55.91
2022-10-06T22:56:27.476Z,56.16
2022-10-06T22:58:54.958Z,56.25
2022-10-06T23:01:22.161Z,56.34
2022-10-06T23:03:49.161Z,56.27
2022-10-06T23:06:17.930Z,56.27
2022-10-06T23:08:45.219Z,56.32
2022-10-06T23:11:15.507Z,56.19
2022-10-06T23:13:43.391Z,56.06
2022-10-06T23:16:13.712Z,56.26
2022-10-06T23:18:41.814Z,56.28
2022-10-06T23:21:19.250Z,56.34
2022-10-06T23:23:46.974Z,56.34
2022-10-06T23:26:16.087Z,56.53
2022-10-06T23:28:43.296Z,56.27
2022-10-06T23:31:11.498Z,56.35
2022-10-06T23:33:39.035Z,56.51
2022-10-06T23:36:09.995Z,56.74
2022-10-06T23:38:38.187Z,56.69
2022-10-06T23:41:06.786Z,56.88
2022-10-06T23:43:34.260Z,56.95
2022-10-06T23:46:02.607Z,57.04
2022-10-06T23:48:30.235Z,57.11
2022-10-06T23:51:04.739Z,57.05
2022-10-06T23:53:34.131Z,56.87
2022-10-06T23:56:01.591Z,56.90
2022-10-06T23:58:29.035Z,57.13
